Hoekmarksberget, Sweden

10:11 AM CEST on August 31, 2014 (GMT +0200)
Skelleftea | Change Station
CLOSE
Current Station
Airport
Location: Skelleftea,
Elevation: 144 ft
Nearby Weather Stations

Elev 144 ft 64.62 °N, 21.08 °E | Updated 21 minutes ago

Partly Cloudy
Partly Cloudy
55 °F
Feels Like 55 °F
N
7
Wind Variable Wind from ENE

Today
High -- | Low -- °F
--% Chance of Precip.
Yesterday
High -- | Low -- °F
Precip. -- in
5:12 AM 7:55 PM
Waxing Crescent, 28% visible
Pressure 30.24 in
Visibility 6.2 miles
Clouds Few 2600 ft
Dew Point 45 °F
Humidity 67%
Rainfall 0.00 in
Snow Depth Not available.
UV 2 out of 12
Pollen Not available.
Air Quality Not available.
Flu Activity Not available.
METAR ESNS 310750Z 07006KT 040V100 9999 FEW026 13/07 Q1024

More Conditions Fewer Conditions

Pressure 30.24 in
Visibility 6.2 miles
Clouds Few 2600 ft
Dew Point 45 °F
Humidity 67%
Rainfall 0.00 in
Snow Depth Not available.
UV 2 out of 12
Pollen Not available.
Air Quality Not available.
Flu Activity Not available.
METAR ESNS 310750Z 07006KT 040V100 9999 FEW026 13/07 Q1024

More Conditions Fewer Conditions

10-Day Weather Forecast

Almanac

Astronomy

Aug. 31, 2014 Rise Set
Actual Time 5:12 AM CEST 7:55 PM CEST
Civil Twilight 4:17 AM CEST 8:49 PM CEST
Nautical Twilight 3:00 AM CEST 10:05 PM CEST
Astronomical Twilight 1:07 AM CEST 12:02 AM CEST
Moon 12:49 PM CEST 8:44 PM CEST
Length of Visible Light 16h 31m
Length of Day
14h 43m
Tomorrow will be 6m 35s shorter.
Waxing Crescent, 28% of the Moon is Illuminated
Today
Waxing Crescent
Sep 2
First Quarter
Sep 8
Full
Sep 15
Last Quarter
Sep 24
New

Yesterday's Extremes

Country Highs Country Lows

Community

WunderPhotos

Upload Photos

1,748,820 photos uploaded!

Nearby

Snow Depth

Not available.

Earthquake Activity

City Distance Mag. Time & Date
No recent earthquake activity has been reported nearby.
Minimum magnitude displayed is 2.5.

Coastal Water Temperatures

Place Temperature
No Stations Reporting

Nearby Weather Stations